Time,TemperatureF,DewpointF,PressureIn,WindDirection,WindDirectionDegrees,WindSpeedMPH,WindSpeedGustMPH,Humidity,HourlyPrecipIn,Conditions,Clouds,dailyrainin,SoftwareType,DateUTC
2013-03-10 00:02:00,25.0,21.0,-100.00,East,90,0.0,2.0,85,0.00,,,-99.99,,2013-03-10 05:02:00,
2013-03-10 00:11:00,25.0,22.0,-100.00,NNW,345,1.0,2.0,86,0.00,,,-99.99,,2013-03-10 05:11:00,
2013-03-10 00:22:00,24.0,21.0,-100.00,NNE,30,1.0,2.0,86,0.00,,,-99.99,,2013-03-10 05:22:00,
2013-03-10 00:32:00,24.0,21.0,-100.00,NNE,15,0.0,2.0,87,0.00,,,-99.99,,2013-03-10 05:32:00,
2013-03-10 00:42:00,24.0,21.0,-100.00,NNW,340,2.0,2.0,87,0.00,,,-99.99,,2013-03-10 05:42:00,
2013-03-10 01:01:00,24.0,22.0,-100.00,NNW,335,1.0,1.0,88,0.00,,,-99.99,,2013-03-10 06:01:00,
2013-03-10 01:11:00,24.0,21.0,-100.00,NNW,335,1.0,1.0,89,0.00,,,-99.99,,2013-03-10 06:11:00,
2013-03-10 01:22:00,24.0,22.0,-100.00,NW,310,1.0,4.0,89,0.00,,,-99.99,,2013-03-10 06:22:00,
2013-03-10 01:32:00,24.0,21.0,-100.00,NNW,340,1.0,2.0,89,0.00,,,-99.99,,2013-03-10 06:32:00,
2013-03-10 01:42:00,24.0,21.0,-100.00,NNW,330,1.0,2.0,89,0.00,,,-99.99,,2013-03-10 06:42:00,
2013-03-10 01:51:00,24.0,22.0,-100.00,North,0,0.0,1.0,90,0.00,,,-99.99,,2013-03-10 06:51:00,
2013-03-10 03:02:00,24.0,22.0,-100.00,North,-999,-999.0,-999.0,90,-99.99,,,-99.99,,2013-03-10 07:02:00,
2013-03-10 03:11:00,24.0,22.0,-100.00,NW,320,1.0,1.0,90,0.00,,,-99.99,,2013-03-10 07:11:00,
2013-03-10 03:21:00,24.0,22.0,-100.00,NW,315,1.0,1.0,90,0.00,,,-99.99,,2013-03-10 07:21:00,
2013-03-10 03:32:00,24.0,21.0,-100.00,NNW,330,1.0,1.0,90,0.00,,,-99.99,,2013-03-10 07:32:00,
2013-03-10 03:42:00,24.0,21.0,-100.00,North,350,1.0,2.0,91,0.00,,,-99.99,,2013-03-10 07:42:00,
2013-03-10 03:52:00,24.0,21.0,-100.00,NNW,340,1.0,4.0,91,0.00,,,-99.99,,2013-03-10 07:52:00,
2013-03-10 04:01:00,23.0,21.0,-100.00,NNE,20,0.0,4.0,91,0.00,,,-99.99,,2013-03-10 08:01:00,
2013-03-10 04:11:00,23.0,21.0,-100.00,ESE,120,1.0,2.0,91,0.00,,,-99.99,,2013-03-10 08:11:00,
2013-03-10 04:21:00,23.0,21.0,-100.00,SSE,160,0.0,2.0,91,0.00,,,-99.99,,2013-03-10 08:21:00,
2013-03-10 04:32:00,22.0,20.0,-100.00,ESE,120,0.0,1.0,91,0.00,,,-99.99,,2013-03-10 08:32:00,
2013-03-10 04:42:00,22.0,20.0,-100.00,NNW,340,1.0,2.0,91,0.00,,,-99.99,,2013-03-10 08:42:00,
2013-03-10 04:51:00,22.0,20.0,-100.00,NNW,335,1.0,4.0,92,0.00,,,-99.99,,2013-03-10 08:51:00,
2013-03-10 05:01:00,22.0,20.0,-100.00,North,350,0.0,4.0,92,0.00,,,-99.99,,2013-03-10 09:01:00,
2013-03-10 05:11:00,22.0,20.0,-100.00,NNE,20,1.0,2.0,92,0.00,,,-99.99,,2013-03-10 09:11:00,
2013-03-10 05:21:00,22.0,20.0,-100.00,SSE,155,0.0,1.0,92,0.00,,,-99.99,,2013-03-10 09:21:00,
2013-03-10 05:31:00,22.0,20.0,-100.00,ESE,120,0.0,1.0,92,0.00,,,-99.99,,2013-03-10 09:31:00,
2013-03-10 05:41:00,21.0,19.0,-100.00,ESE,115,0.0,1.0,92,0.00,,,-99.99,,2013-03-10 09:41:00,
2013-03-10 05:51:00,21.0,19.0,-100.00,NNE,25,0.0,2.0,92,0.00,,,-99.99,,2013-03-10 09:51:00,
2013-03-10 06:01:00,21.0,19.0,-100.00,ESE,120,0.0,1.0,92,0.00,,,-99.99,,2013-03-10 10:01:00,
2013-03-10 06:11:00,21.0,19.0,-100.00,NW,315,1.0,2.0,92,0.00,,,-99.99,,2013-03-10 10:11:00,
2013-03-10 06:21:00,21.0,19.0,-100.00,North,355,1.0,1.0,92,0.00,,,-99.99,,2013-03-10 10:21:00,
2013-03-10 06:32:00,21.0,19.0,-100.00,NNW,335,0.0,2.0,92,0.00,,,-99.99,,2013-03-10 10:32:00,
2013-03-10 06:42:00,21.0,19.0,-100.00,NNW,335,1.0,2.0,92,0.00,,,-99.99,,2013-03-10 10:42:00,
2013-03-10 06:52:00,20.0,18.0,-100.00,NNW,335,2.0,3.0,92,0.00,,,-99.99,,2013-03-10 10:52:00,
2013-03-10 07:01:00,20.0,18.0,-100.00,NNW,345,2.0,3.0,92,0.00,,,-99.99,,2013-03-10 11:01:00,
2013-03-10 07:12:00,20.0,19.0,-100.00,NW,315,0.0,2.0,92,0.00,,,-99.99,,2013-03-10 11:12:00,
2013-03-10 07:21:00,20.0,19.0,-100.00,NNW,340,2.0,2.0,92,0.00,,,-99.99,,2013-03-10 11:21:00,
2013-03-10 07:32:00,20.0,19.0,-100.00,NW,310,0.0,1.0,92,0.00,,,-99.99,,2013-03-10 11:32:00,
2013-03-10 07:42:00,20.0,19.0,-100.00,NNW,345,2.0,3.0,92,0.00,,,-99.99,,2013-03-10 11:42:00,
2013-03-10 07:52:00,20.0,19.0,-100.00,NNW,345,1.0,3.0,92,0.00,,,-99.99,,2013-03-10 11:52:00,
2013-03-10 08:01:00,21.0,19.0,-100.00,NNW,335,0.0,2.0,92,0.00,,,-99.99,,2013-03-10 12:01:00,
2013-03-10 08:11:00,22.0,20.0,-100.00,NNE,20,1.0,2.0,92,0.00,,,-99.99,,2013-03-10 12:11:00,
2013-03-10 08:21:00,23.0,21.0,-100.00,NNW,345,1.0,2.0,92,0.00,,,-99.99,,2013-03-10 12:21:00,
2013-03-10 08:31:00,24.0,22.0,-100.00,North,-999,-999.0,-999.0,92,-99.99,,,-99.99,,2013-03-10 12:31:00,
2013-03-10 08:42:00,24.0,22.0,-100.00,NNW,340,2.0,3.0,92,0.00,,,-99.99,,2013-03-10 12:42:00,
2013-03-10 08:51:00,27.0,26.0,-100.00,SSW,205,0.0,1.0,91,0.00,,,-99.99,,2013-03-10 12:51:00,
2013-03-10 09:01:00,28.0,26.0,-100.00,NNE,30,0.0,3.0,90,0.00,,,-99.99,,2013-03-10 13:01:00,
2013-03-10 09:11:00,29.0,27.0,-100.00,SE,140,1.0,1.0,89,0.00,,,-99.99,,2013-03-10 13:11:00,
2013-03-10 09:21:00,31.0,27.0,-100.00,SSE,155,2.0,4.0,84,0.00,,,-99.99,,2013-03-10 13:21:00,
2013-03-10 09:32:00,32.0,27.0,-100.00,East,95,1.0,4.0,80,0.00,,,-99.99,,2013-03-10 13:32:00,
2013-03-10 09:41:00,33.0,26.0,-100.00,SSE,165,2.0,3.0,74,0.00,,,-99.99,,2013-03-10 13:41:00,
2013-03-10 09:52:00,33.0,25.0,-100.00,NNW,340,2.0,4.0,71,0.00,,,-99.99,,2013-03-10 13:52:00,
2013-03-10 10:02:00,33.0,25.0,-100.00,NNW,335,1.0,4.0,71,0.00,,,-99.99,,2013-03-10 14:02:00,
2013-03-10 10:11:00,35.0,25.0,-100.00,ESE,110,3.0,6.0,66,0.00,,,-99.99,,2013-03-10 14:11:00,
2013-03-10 10:21:00,36.0,24.0,-100.00,ESE,105,3.0,6.0,59,0.00,,,-99.99,,2013-03-10 14:21:00,
2013-03-10 10:32:00,37.0,22.0,-100.00,SE,130,2.0,4.0,55,0.00,,,-99.99,,2013-03-10 14:32:00,
2013-03-10 10:41:00,37.0,22.0,-100.00,SE,145,1.0,7.0,54,0.00,,,-99.99,,2013-03-10 14:41:00,
2013-03-10 10:51:00,37.0,22.0,-100.00,SSE,165,3.0,7.0,52,0.00,,,-99.99,,2013-03-10 14:51:00,
2013-03-10 11:01:00,38.0,22.0,-100.00,South,175,2.0,7.0,53,0.00,,,-99.99,,2013-03-10 15:01:00,
2013-03-10 11:11:00,38.0,22.0,-100.00,SE,135,3.0,6.0,52,0.00,,,-99.99,,2013-03-10 15:11:00,
2013-03-10 11:21:00,40.0,22.0,-100.00,South,185,2.0,6.0,49,0.00,,,-99.99,,2013-03-10 15:21:00,
2013-03-10 11:32:00,40.0,23.0,-100.00,SE,125,2.0,4.0,49,0.00,,,-99.99,,2013-03-10 15:32:00,
2013-03-10 11:42:00,38.0,23.0,-100.00,SE,125,4.0,7.0,53,0.00,,,-99.99,,2013-03-10 15:42:00,
2013-03-10 11:51:00,39.0,23.0,-100.00,South,180,4.0,7.0,52,0.00,,,-99.99,,2013-03-10 15:51:00,
2013-03-10 12:02:00,40.0,23.0,-100.00,East,100,2.0,6.0,49,0.00,,,-99.99,,2013-03-10 16:02:00,
2013-03-10 12:12:00,41.0,22.0,-100.00,ESE,115,3.0,7.0,47,0.00,,,-99.99,,2013-03-10 16:12:00,
2013-03-10 12:21:00,40.0,23.0,-100.00,South,175,4.0,7.0,48,0.00,,,-99.99,,2013-03-10 16:21:00,
2013-03-10 12:32:00,41.0,22.0,-100.00,SE,130,4.0,7.0,44,0.00,,,-99.99,,2013-03-10 16:32:00,
2013-03-10 12:41:00,41.0,23.0,-100.00,NE,40,2.0,11.0,47,0.00,,,-99.99,,2013-03-10 16:41:00,
2013-03-10 12:51:00,42.0,22.0,-100.00,SSE,155,1.0,9.0,45,0.00,,,-99.99,,2013-03-10 16:51:00,
2013-03-10 13:01:00,42.0,21.0,-100.00,SSE,165,2.0,5.0,42,0.00,,,-99.99,,2013-03-10 17:01:00,
2013-03-10 13:11:00,42.0,21.0,-100.00,South,180,3.0,7.0,41,0.00,,,-99.99,,2013-03-10 17:11:00,
2013-03-10 13:21:00,42.0,20.0,-100.00,ESE,120,4.0,8.0,41,0.00,,,-99.99,,2013-03-10 17:21:00,
2013-03-10 13:32:00,43.0,19.0,-100.00,North,-999,-999.0,-999.0,39,-99.99,,,-99.99,,2013-03-10 17:32:00,
2013-03-10 13:41:00,43.0,19.0,-100.00,SE,145,4.0,8.0,37,0.00,,,-99.99,,2013-03-10 17:41:00,
2013-03-10 13:51:00,44.0,19.0,-100.00,SE,135,3.0,10.0,37,0.00,,,-99.99,,2013-03-10 17:51:00,
2013-03-10 14:01:00,44.0,20.0,-100.00,SSE,165,3.0,7.0,36,0.00,,,-99.99,,2013-03-10 18:01:00,
2013-03-10 14:11:00,44.0,20.0,-100.00,SSE,165,4.0,7.0,37,0.00,,,-99.99,,2013-03-10 18:11:00,
2013-03-10 14:22:00,44.0,20.0,-100.00,South,175,5.0,7.0,37,0.00,,,-99.99,,2013-03-10 18:22:00,
2013-03-10 14:32:00,44.0,20.0,-100.00,SSE,160,4.0,9.0,38,0.00,,,-99.99,,2013-03-10 18:32:00,
2013-03-10 14:42:00,44.0,20.0,-100.00,South,175,2.0,8.0,38,0.00,,,-99.99,,2013-03-10 18:42:00,
2013-03-10 14:52:00,43.0,21.0,-100.00,North,-999,-999.0,-999.0,41,0.00,,,-99.99,,2013-03-10 18:52:00,
2013-03-10 15:01:00,44.0,22.0,-100.00,West,275,2.0,7.0,40,0.00,,,-99.99,,2013-03-10 19:01:00,
2013-03-10 15:11:00,44.0,22.0,-100.00,SE,140,1.0,7.0,41,0.00,,,-99.99,,2013-03-10 19:11:00,
2013-03-10 15:21:00,44.0,22.0,-100.00,NNW,345,1.0,4.0,41,0.00,,,-99.99,,2013-03-10 19:21:00,
2013-03-10 15:32:00,44.0,22.0,-100.00,SE,135,2.0,6.0,40,0.00,,,-99.99,,2013-03-10 19:32:00,
2013-03-10 15:42:00,44.0,22.0,-100.00,SSE,160,2.0,6.0,40,0.00,,,-99.99,,2013-03-10 19:42:00,
2013-03-10 15:52:00,44.0,23.0,-100.00,SSE,165,1.0,6.0,43,0.00,,,-99.99,,2013-03-10 19:52:00,
2013-03-10 16:02:00,44.0,21.0,-100.00,WSW,245,2.0,6.0,39,0.00,,,-99.99,,2013-03-10 20:02:00,
2013-03-10 16:12:00,45.0,22.0,-100.00,East,80,2.0,6.0,39,0.00,,,-99.99,,2013-03-10 20:12:00,
2013-03-10 16:22:00,44.0,21.0,-100.00,SSE,165,2.0,6.0,39,0.00,,,-99.99,,2013-03-10 20:22:00,
2013-03-10 16:32:00,45.0,22.0,-100.00,SE,135,4.0,7.0,40,0.00,,,-99.99,,2013-03-10 20:32:00,
2013-03-10 16:42:00,44.0,21.0,-100.00,SSE,160,4.0,7.0,39,0.00,,,-99.99,,2013-03-10 20:42:00,
2013-03-10 16:52:00,44.0,22.0,-100.00,South,190,2.0,6.0,39,0.00,,,-99.99,,2013-03-10 20:52:00,
2013-03-10 17:02:00,44.0,23.0,-100.00,West,280,1.0,7.0,43,0.00,,,-99.99,,2013-03-10 21:02:00,
2013-03-10 17:12:00,44.0,23.0,-100.00,NE,45,1.0,4.0,42,0.00,,,-99.99,,2013-03-10 21:12:00,
2013-03-10 17:23:00,44.0,23.0,-100.00,NE,55,2.0,7.0,43,0.00,,,-99.99,,2013-03-10 21:23:00,
2013-03-10 17:32:00,44.0,22.0,-100.00,SE,130,4.0,7.0,42,0.00,,,-99.99,,2013-03-10 21:32:00,
2013-03-10 17:42:00,43.0,24.0,-100.00,South,170,2.0,7.0,45,0.00,,,-99.99,,2013-03-10 21:42:00,
2013-03-10 17:52:00,43.0,24.0,-100.00,South,170,2.0,7.0,45,0.00,,,-99.99,,2013-03-10 21:52:00,
2013-03-10 18:03:00,43.0,23.0,-100.00,SE,140,2.0,6.0,45,0.00,,,-99.99,,2013-03-10 22:03:00,
2013-03-10 18:12:00,42.0,24.0,-100.00,South,190,1.0,4.0,49,0.00,,,-99.99,,2013-03-10 22:12:00,
2013-03-10 18:22:00,42.0,24.0,-100.00,SSE,165,2.0,6.0,50,0.00,,,-99.99,,2013-03-10 22:22:00,
2013-03-10 18:32:00,41.0,25.0,-100.00,East,80,1.0,4.0,51,0.00,,,-99.99,,2013-03-10 22:32:00,
2013-03-10 18:43:00,40.0,26.0,-100.00,SE,135,1.0,3.0,55,0.00,,,-99.99,,2013-03-10 22:43:00,
2013-03-10 18:52:00,40.0,26.0,-100.00,SSE,165,1.0,4.0,56,0.00,,,-99.99,,2013-03-10 22:52:00,
2013-03-10 19:03:00,40.0,26.0,-100.00,SSE,165,1.0,3.0,56,0.00,,,-99.99,,2013-03-10 23:03:00,
2013-03-10 19:12:00,40.0,26.0,-100.00,North,5,1.0,4.0,56,0.00,,,-99.99,,2013-03-10 23:12:00,
2013-03-10 19:23:00,40.0,26.0,-100.00,South,175,1.0,4.0,58,0.00,,,-99.99,,2013-03-10 23:23:00,
2013-03-10 19:33:00,39.0,26.0,-100.00,ESE,115,1.0,4.0,59,0.00,,,-99.99,,2013-03-10 23:33:00,
2013-03-10 19:42:00,39.0,26.0,-100.00,South,175,2.0,4.0,60,0.00,,,-99.99,,2013-03-10 23:42:00,
2013-03-10 19:52:00,39.0,26.0,-100.00,ESE,115,3.0,7.0,59,0.00,,,-99.99,,2013-03-10 23:52:00,
2013-03-10 20:02:00,38.0,26.0,-100.00,SE,145,3.0,6.0,61,0.00,,,-99.99,,2013-03-11 00:02:00,
2013-03-10 20:12:00,38.0,26.0,-100.00,ESE,105,2.0,7.0,60,0.00,,,-99.99,,2013-03-11 00:12:00,
2013-03-10 20:23:00,38.0,27.0,-100.00,ESE,110,2.0,4.0,63,0.00,,,-99.99,,2013-03-11 00:23:00,
2013-03-10 20:33:00,38.0,26.0,-100.00,SSE,150,4.0,7.0,63,0.00,,,-99.99,,2013-03-11 00:33:00,
2013-03-10 20:43:00,37.0,26.0,-100.00,SSE,160,4.0,8.0,65,0.00,,,-99.99,,2013-03-11 00:43:00,
2013-03-10 20:52:00,36.0,26.0,-100.00,SSE,150,4.0,10.0,67,0.00,,,-99.99,,2013-03-11 00:52:00,
2013-03-10 21:03:00,36.0,27.0,-100.00,South,175,4.0,10.0,68,0.00,,,-99.99,,2013-03-11 01:03:00,
2013-03-10 21:13:00,35.0,27.0,-100.00,SSE,165,3.0,7.0,70,0.00,,,-99.99,,2013-03-11 01:13:00,
2013-03-10 21:23:00,35.0,27.0,-100.00,SSE,150,4.0,7.0,70,0.00,,,-99.99,,2013-03-11 01:23:00,
2013-03-10 21:32:00,35.0,27.0,-100.00,SSE,150,4.0,9.0,71,0.00,,,-99.99,,2013-03-11 01:32:00,
2013-03-10 21:42:00,35.0,27.0,-100.00,South,170,4.0,7.0,72,0.00,,,-99.99,,2013-03-11 01:42:00,
2013-03-10 21:52:00,34.0,27.0,-100.00,SSE,165,6.0,9.0,73,0.00,,,-99.99,,2013-03-11 01:52:00,
2013-03-10 22:02:00,34.0,27.0,-100.00,SE,125,4.0,9.0,74,0.00,,,-99.99,,2013-03-11 02:02:00,
2013-03-10 22:12:00,34.0,27.0,-100.00,SE,140,3.0,7.0,74,0.00,,,-99.99,,2013-03-11 02:12:00,
2013-03-10 22:23:00,34.0,27.0,-100.00,SSE,165,1.0,4.0,75,0.00,,,-99.99,,2013-03-11 02:23:00,
2013-03-10 22:32:00,34.0,27.0,-100.00,SSE,165,1.0,4.0,75,0.00,,,-99.99,,2013-03-11 02:32:00,
2013-03-10 22:42:00,33.0,27.0,-100.00,SSE,150,2.0,4.0,77,0.00,,,-99.99,,2013-03-11 02:42:00,
2013-03-10 22:52:00,33.0,27.0,-100.00,SSE,165,3.0,4.0,78,0.00,,,-99.99,,2013-03-11 02:52:00,
2013-03-10 23:02:00,33.0,27.0,-100.00,South,170,2.0,4.0,79,0.00,,,-99.99,,2013-03-11 03:02:00,
2013-03-10 23:12:00,33.0,27.0,-100.00,SE,145,2.0,3.0,79,0.00,,,-99.99,,2013-03-11 03:12:00,
2013-03-10 23:22:00,32.0,27.0,-100.00,SSE,150,2.0,4.0,80,0.00,,,-99.99,,2013-03-11 03:22:00,
2013-03-10 23:32:00,32.0,27.0,-100.00,SSE,150,2.0,4.0,80,0.00,,,-99.99,,2013-03-11 03:32:00,
2013-03-10 23:42:00,32.0,27.0,-100.00,East,100,1.0,6.0,82,0.00,,,-99.99,,2013-03-11 03:42:00,
2013-03-10 23:52:00,32.0,27.0,-100.00,SE,145,1.0,3.0,83,0.00,,,-99.99,,2013-03-11 03:52:00,